createdAt,value
2023-05-21T00:00:41.475Z,12.61
2023-05-21T00:03:14.314Z,12.65
2023-05-21T00:05:42.518Z,12.65
2023-05-21T00:08:11.096Z,12.62
2023-05-21T00:10:39.755Z,12.60
2023-05-21T00:13:09.172Z,12.53
2023-05-21T00:15:37.425Z,12.52
2023-05-21T00:18:05.789Z,12.45
2023-05-21T00:20:35.700Z,12.41
2023-05-21T00:23:03.989Z,12.40
2023-05-21T00:25:32.490Z,12.21
2023-05-21T00:28:00.474Z,12.13
2023-05-21T00:30:28.422Z,11.98
2023-05-21T00:32:59.069Z,11.82
2023-05-21T00:35:27.190Z,11.81
2023-05-21T00:37:57.488Z,11.70
2023-05-21T00:40:25.899Z,11.67
2023-05-21T00:42:57.359Z,11.57
2023-05-21T00:45:25.716Z,11.48
2023-05-21T00:47:55.680Z,11.51
2023-05-21T00:50:24.352Z,11.40
2023-05-21T00:52:52.487Z,11.25
2023-05-21T00:55:22.144Z,11.13
2023-05-21T00:57:50.784Z,11.01
2023-05-21T01:00:18.972Z,10.97
2023-05-21T01:02:47.681Z,10.85
2023-05-21T01:05:16.351Z,10.71
2023-05-21T01:07:44.173Z,10.65
2023-05-21T01:10:13.978Z,10.64
2023-05-21T01:12:44.996Z,10.68
2023-05-21T01:15:13.520Z,10.64
2023-05-21T01:17:41.713Z,10.53
2023-05-21T01:20:11.341Z,10.46
2023-05-21T01:22:44.721Z,10.38
2023-05-21T01:25:15.138Z,10.32
2023-05-21T01:27:43.206Z,10.28
2023-05-21T01:30:12.417Z,10.20
2023-05-21T01:32:46.448Z,10.07
2023-05-21T01:35:18.606Z,10.03
2023-05-21T01:37:52.772Z,10.01
2023-05-21T01:40:27.035Z,9.85
2023-05-21T01:42:55.196Z,9.92
2023-05-21T01:45:25.126Z,9.87
2023-05-21T01:47:55.863Z,9.83
2023-05-21T01:50:25.828Z,9.71
2023-05-21T01:52:55.292Z,9.60
2023-05-21T01:55:25.467Z,9.63
2023-05-21T01:57:54.012Z,9.52
2023-05-21T02:00:22.847Z,9.49
2023-05-21T02:02:51.896Z,9.41
2023-05-21T02:05:20.150Z,9.29
2023-05-21T02:07:48.823Z,9.16
2023-05-21T02:10:16.636Z,9.19
2023-05-21T02:12:46.390Z,9.15
2023-05-21T02:15:18.112Z,9.19
2023-05-21T02:17:46.477Z,9.13
2023-05-21T02:20:14.931Z,9.10
2023-05-21T02:22:44.496Z,9.04
2023-05-21T02:25:13.955Z,9.07
2023-05-21T02:27:42.589Z,9.07
2023-05-21T02:30:13.480Z,9.10
2023-05-21T02:32:43.167Z,9.12
2023-05-21T02:35:12.897Z,9.10
2023-05-21T02:37:41.671Z,9.05
2023-05-21T02:40:11.271Z,9.03
2023-05-21T02:42:40.502Z,9.04
2023-05-21T02:45:10.196Z,8.96
2023-05-21T02:47:39.702Z,8.99
2023-05-21T02:50:09.318Z,8.99
2023-05-21T02:52:37.316Z,8.98
2023-05-21T02:55:05.868Z,9.04
2023-05-21T02:57:33.833Z,9.05
2023-05-21T03:00:01.800Z,9.03
2023-05-21T03:02:30.329Z,9.05
2023-05-21T03:04:59.504Z,9.10
2023-05-21T03:07:27.692Z,9.17
2023-05-21T03:09:55.704Z,9.22
2023-05-21T03:12:23.718Z,9.21
2023-05-21T03:14:52.378Z,9.17
2023-05-21T03:17:20.726Z,9.22
2023-05-21T03:19:49.248Z,9.26
2023-05-21T03:22:20.152Z,9.35
2023-05-21T03:24:48.736Z,9.40
2023-05-21T03:27:16.860Z,9.42
2023-05-21T03:29:44.775Z,9.47
2023-05-21T03:32:12.862Z,9.53
2023-05-21T03:34:42.578Z,9.61
2023-05-21T03:37:10.560Z,9.64
2023-05-21T03:39:39.882Z,9.70
2023-05-21T03:42:07.842Z,9.75
2023-05-21T03:44:35.837Z,9.83
2023-05-21T03:47:03.807Z,9.87
2023-05-21T03:49:31.836Z,9.95
2023-05-21T03:51:59.880Z,10.02
2023-05-21T03:54:27.841Z,10.16
2023-05-21T03:56:57.225Z,10.20
2023-05-21T03:59:25.167Z,10.28
2023-05-21T04:01:53.290Z,10.30
2023-05-21T04:04:21.403Z,10.39
2023-05-21T04:06:49.714Z,10.46
2023-05-21T04:09:17.749Z,10.53
2023-05-21T04:11:45.734Z,10.63
2023-05-21T04:14:15.226Z,10.78
2023-05-21T04:16:44.217Z,10.82
2023-05-21T04:19:12.301Z,10.95
2023-05-21T04:21:40.462Z,10.95
2023-05-21T04:24:08.479Z,11.03
2023-05-21T04:26:36.594Z,11.07
2023-05-21T04:29:05.150Z,11.15
2023-05-21T04:31:34.742Z,11.17
2023-05-21T04:34:02.767Z,11.19
2023-05-21T04:36:30.773Z,11.23
2023-05-21T04:38:58.821Z,11.27
2023-05-21T04:41:26.838Z,11.32
2023-05-21T04:43:55.526Z,11.34
2023-05-21T04:46:26.989Z,11.41
2023-05-21T04:48:56.437Z,11.44
2023-05-21T04:51:24.978Z,11.51
2023-05-21T04:53:54.011Z,11.60
2023-05-21T04:56:23.028Z,11.61
2023-05-21T04:58:51.315Z,11.69
2023-05-21T05:01:20.085Z,11.68
2023-05-21T05:03:48.445Z,11.74
2023-05-21T05:06:18.002Z,11.78
2023-05-21T05:08:46.346Z,11.85
2023-05-21T05:11:14.390Z,11.91
2023-05-21T05:13:42.828Z,11.95
2023-05-21T05:16:13.054Z,11.98
2023-05-21T05:18:41.052Z,12.13
2023-05-21T05:21:09.036Z,12.14
2023-05-21T05:23:38.442Z,12.21
2023-05-21T05:26:06.518Z,12.24
2023-05-21T05:28:34.561Z,12.32
2023-05-21T05:31:02.561Z,12.35
2023-05-21T05:33:30.600Z,12.34
2023-05-21T05:35:58.839Z,12.41
2023-05-21T05:38:27.259Z,12.47
2023-05-21T05:40:56.595Z,12.47
2023-05-21T05:43:26.472Z,12.56
2023-05-21T05:45:54.918Z,12.53
2023-05-21T05:48:22.963Z,12.58
2023-05-21T05:50:54.707Z,12.63
2023-05-21T05:53:22.699Z,12.67
2023-05-21T05:55:50.701Z,12.72
2023-05-21T05:58:20.445Z,12.81
2023-05-21T06:00:48.415Z,12.85
2023-05-21T06:03:16.548Z,12.94
2023-05-21T06:05:44.909Z,12.97
2023-05-21T06:08:12.930Z,13.01
2023-05-21T06:10:40.984Z,13.08
2023-05-21T06:13:08.954Z,13.13
2023-05-21T06:15:39.417Z,13.23
2023-05-21T06:18:07.620Z,13.25
2023-05-21T06:20:35.668Z,13.36
2023-05-21T06:23:03.676Z,13.43
2023-05-21T06:25:31.993Z,13.49
2023-05-21T06:27:59.980Z,13.56
2023-05-21T06:30:27.947Z,13.58
2023-05-21T06:32:57.563Z,13.61
2023-05-21T06:35:25.944Z,13.64
2023-05-21T06:37:53.978Z,13.71
2023-05-21T06:40:21.993Z,13.79
2023-05-21T06:42:50.066Z,13.89
2023-05-21T06:45:18.155Z,13.93
2023-05-21T06:47:46.268Z,14.00
2023-05-21T06:50:15.687Z,14.12
2023-05-21T06:52:43.680Z,14.28
2023-05-21T06:55:11.725Z,14.36
2023-05-21T06:57:39.966Z,14.46
2023-05-21T07:00:10.438Z,14.55
2023-05-21T07:02:38.522Z,14.57
2023-05-21T07:05:07.281Z,14.65
2023-05-21T07:07:39.042Z,14.66
2023-05-21T07:10:08.457Z,14.73
2023-05-21T07:12:36.634Z,14.82
2023-05-21T07:15:04.917Z,14.79
2023-05-21T07:17:32.964Z,14.86
2023-05-21T07:20:01.043Z,14.91
2023-05-21T07:22:29.119Z,14.99
2023-05-21T07:24:58.472Z,15.09
2023-05-21T07:27:26.501Z,15.13
2023-05-21T07:29:54.519Z,15.15
2023-05-21T07:32:22.477Z,15.22
2023-05-21T07:34:52.145Z,15.33
2023-05-21T07:37:21.882Z,15.36
2023-05-21T07:39:49.853Z,15.43
2023-05-21T07:42:19.221Z,15.53
2023-05-21T07:44:47.305Z,15.56
2023-05-21T07:47:15.285Z,15.66
2023-05-21T07:49:43.269Z,15.70
2023-05-21T07:52:11.297Z,15.78
2023-05-21T07:54:39.362Z,15.82
2023-05-21T07:57:07.308Z,15.85
2023-05-21T07:59:36.722Z,15.91
2023-05-21T08:02:04.928Z,15.93
2023-05-21T08:04:32.983Z,16.00
2023-05-21T08:07:01.012Z,16.00
2023-05-21T08:09:29.023Z,16.01
2023-05-21T08:11:56.984Z,16.12
2023-05-21T08:14:24.985Z,16.20
2023-05-21T08:16:54.371Z,16.32
2023-05-21T08:19:22.356Z,16.43
2023-05-21T08:21:52.736Z,16.56
2023-05-21T08:24:24.745Z,16.65
2023-05-21T08:26:52.749Z,16.68
2023-05-21T08:29:20.844Z,16.79
2023-05-21T08:31:48.868Z,16.89
2023-05-21T08:34:18.703Z,16.97
2023-05-21T08:36:48.071Z,17.00
2023-05-21T08:39:16.038Z,17.05
2023-05-21T08:41:49.785Z,17.05
2023-05-21T08:44:22.221Z,17.09
2023-05-21T08:46:52.087Z,17.11
2023-05-21T08:49:28.043Z,17.22
2023-05-21T08:51:56.973Z,17.34
2023-05-21T08:54:25.347Z,17.44
2023-05-21T08:56:54.152Z,17.51
2023-05-21T08:59:23.127Z,17.61
2023-05-21T09:01:52.397Z,17.72
2023-05-21T09:04:22.525Z,17.79
2023-05-21T09:06:52.039Z,17.90
2023-05-21T09:09:27.196Z,18.07
2023-05-21T09:11:55.345Z,18.13
2023-05-21T09:14:25.372Z,18.27
2023-05-21T09:16:53.518Z,18.34
2023-05-21T09:19:23.302Z,18.40
2023-05-21T09:21:53.130Z,18.43
2023-05-21T09:24:23.843Z,18.40
2023-05-21T09:26:52.716Z,18.46
2023-05-21T09:29:20.763Z,18.49
2023-05-21T09:31:48.888Z,18.49
2023-05-21T09:34:17.140Z,18.65
2023-05-21T09:36:47.163Z,18.76
2023-05-21T09:39:29.227Z,18.85
2023-05-21T09:41:58.287Z,18.85
2023-05-21T09:44:26.383Z,18.90
2023-05-21T09:46:59.612Z,18.99
2023-05-21T09:49:28.359Z,19.02
2023-05-21T09:51:58.317Z,19.23
2023-05-21T09:54:32.593Z,19.24
2023-05-21T09:57:02.539Z,19.13
2023-05-21T09:59:37.395Z,19.19
2023-05-21T10:02:19.100Z,19.32
2023-05-21T10:04:50.470Z,19.35
2023-05-21T10:07:26.326Z,19.41
2023-05-21T10:09:56.826Z,19.46
2023-05-21T10:12:25.811Z,19.44
2023-05-21T10:15:01.291Z,19.59
2023-05-21T10:17:29.734Z,19.65
2023-05-21T10:20:00.627Z,19.60
2023-05-21T10:22:30.490Z,19.67
2023-05-21T10:24:59.982Z,19.68
2023-05-21T10:27:32.290Z,19.73
2023-05-21T10:30:01.191Z,19.73
2023-05-21T10:32:29.480Z,19.74
2023-05-21T10:35:00.724Z,19.74
2023-05-21T10:37:31.126Z,19.82
2023-05-21T10:39:59.143Z,19.83
2023-05-21T10:43:01.809Z,19.92
2023-05-21T10:45:43.206Z,19.93
2023-05-21T10:48:30.253Z,20.05
2023-05-21T10:51:16.022Z,20.26
2023-05-21T10:54:07.385Z,20.23
2023-05-21T10:56:40.878Z,20.38
2023-05-21T10:59:21.935Z,20.46
2023-05-21T11:01:52.909Z,20.46
2023-05-21T11:04:23.792Z,20.40
2023-05-21T11:06:52.942Z,20.53
2023-05-21T11:09:22.397Z,20.52
2023-05-21T11:11:52.806Z,20.50
2023-05-21T11:14:36.254Z,20.55
2023-05-21T11:17:05.784Z,20.64
2023-05-21T11:19:36.995Z,20.71
2023-05-21T11:22:09.896Z,20.78
2023-05-21T11:24:42.568Z,20.69
2023-05-21T11:27:10.619Z,20.73
2023-05-21T11:29:44.537Z,20.71
2023-05-21T11:32:15.507Z,20.69
2023-05-21T11:34:46.044Z,20.79
2023-05-21T11:37:34.585Z,20.94
2023-05-21T11:40:30.902Z,21.01
2023-05-21T11:42:58.998Z,21.15
2023-05-21T11:45:32.270Z,21.25
2023-05-21T11:48:01.387Z,21.44
2023-05-21T11:50:33.929Z,21.48
2023-05-21T11:53:02.136Z,21.44
2023-05-21T11:55:33.206Z,21.49
2023-05-21T11:58:01.919Z,21.66
2023-05-21T12:00:29.886Z,21.83
2023-05-21T12:02:59.013Z,21.83
2023-05-21T12:05:27.671Z,21.77
2023-05-21T12:07:56.552Z,21.89
2023-05-21T12:10:24.892Z,21.92
2023-05-21T12:12:57.018Z,21.84
2023-05-21T12:15:27.511Z,21.91
2023-05-21T12:17:56.345Z,22.04
2023-05-21T12:20:24.503Z,22.19
2023-05-21T12:22:52.556Z,22.21
2023-05-21T12:25:21.328Z,22.34
2023-05-21T12:27:52.755Z,22.49
2023-05-21T12:30:22.502Z,22.61
2023-05-21T12:32:50.628Z,22.65
2023-05-21T12:35:21.965Z,22.79
2023-05-21T12:37:51.119Z,22.85
2023-05-21T12:40:19.828Z,22.89
2023-05-21T12:42:48.083Z,22.86
2023-05-21T12:45:18.814Z,22.72
2023-05-21T12:47:56.038Z,22.64
2023-05-21T12:50:24.945Z,22.59
2023-05-21T12:53:02.263Z,22.47
2023-05-21T12:55:32.352Z,22.51
2023-05-21T12:58:05.596Z,22.40
2023-05-21T13:00:37.239Z,22.35
2023-05-21T13:03:07.457Z,22.38
2023-05-21T13:05:36.145Z,22.20
2023-05-21T13:08:06.018Z,22.15
2023-05-21T13:10:34.016Z,22.06
2023-05-21T13:13:02.126Z,22.04
2023-05-21T13:15:30.320Z,22.14
2023-05-21T13:18:01.371Z,22.15
2023-05-21T13:20:31.375Z,22.16
2023-05-21T13:22:59.358Z,22.21
2023-05-21T13:25:29.672Z,22.34
2023-05-21T13:27:58.742Z,22.54
2023-05-21T13:30:26.885Z,22.72
2023-05-21T13:32:55.167Z,22.69
2023-05-21T13:35:23.484Z,22.72
2023-05-21T13:37:52.773Z,22.73
2023-05-21T13:40:21.009Z,22.91
2023-05-21T13:42:50.058Z,23.05
2023-05-21T13:45:19.870Z,23.29
2023-05-21T13:47:48.957Z,23.56
2023-05-21T13:50:17.456Z,23.93
2023-05-21T13:52:46.129Z,24.11
2023-05-21T13:55:16.957Z,24.24
2023-05-21T13:57:46.133Z,24.37
2023-05-21T14:00:16.242Z,24.54
2023-05-21T14:02:45.056Z,24.77
2023-05-21T14:05:13.660Z,24.96
2023-05-21T14:07:42.193Z,25.18
2023-05-21T14:10:11.794Z,25.57
2023-05-21T14:12:42.192Z,26.22
2023-05-21T14:15:13.669Z,27.53
2023-05-21T14:17:42.562Z,28.97
2023-05-21T14:20:16.432Z,29.43
2023-05-21T14:22:45.762Z,29.07
2023-05-21T14:25:13.871Z,29.19
2023-05-21T14:27:43.390Z,29.46
2023-05-21T14:30:12.232Z,28.93
2023-05-21T14:32:40.317Z,28.16
2023-05-21T14:35:08.696Z,27.55
2023-05-21T14:37:36.733Z,27.17
2023-05-21T14:40:05.605Z,26.86
2023-05-21T14:42:33.669Z,27.60
2023-05-21T14:45:17.538Z,28.82
2023-05-21T14:47:47.861Z,29.43
2023-05-21T14:50:35.112Z,30.33
2023-05-21T14:53:05.806Z,30.74
2023-05-21T14:55:36.715Z,30.94
2023-05-21T14:58:05.636Z,30.20
2023-05-21T15:00:36.339Z,29.71
2023-05-21T15:03:05.179Z,29.34
2023-05-21T15:05:33.694Z,29.36
2023-05-21T15:08:04.060Z,29.79
2023-05-21T15:10:32.409Z,31.36
2023-05-21T15:13:00.674Z,32.30
2023-05-21T15:15:28.875Z,32.33
2023-05-21T15:17:58.402Z,33.32
2023-05-21T15:20:28.242Z,34.41
2023-05-21T15:23:08.856Z,35.38
2023-05-21T15:25:44.670Z,36.34
2023-05-21T15:28:13.179Z,36.94
2023-05-21T15:30:41.424Z,37.27
2023-05-21T15:33:12.014Z,37.73
2023-05-21T15:35:40.191Z,37.87
2023-05-21T15:38:10.711Z,38.08
2023-05-21T15:40:41.423Z,38.33
2023-05-21T15:43:09.638Z,38.41
2023-05-21T15:45:38.478Z,38.21
2023-05-21T15:48:07.793Z,38.18
2023-05-21T15:50:38.262Z,37.86
2023-05-21T15:53:06.353Z,38.23
2023-05-21T15:55:35.233Z,38.44
2023-05-21T15:58:05.183Z,38.29
2023-05-21T16:00:35.070Z,38.27
2023-05-21T16:03:04.909Z,38.57
2023-05-21T16:05:33.126Z,37.83
2023-05-21T16:08:02.686Z,36.65
2023-05-21T16:10:30.884Z,35.47
2023-05-21T16:12:59.270Z,34.46
2023-05-21T16:15:28.637Z,33.50
2023-05-21T16:17:56.777Z,32.30
2023-05-21T16:20:24.758Z,30.91
2023-05-21T16:22:52.752Z,29.93
2023-05-21T16:25:22.373Z,28.84
2023-05-21T16:27:50.368Z,28.18
2023-05-21T16:30:18.680Z,27.60
2023-05-21T16:32:46.737Z,27.07
2023-05-21T16:35:14.869Z,26.70
2023-05-21T16:37:42.841Z,26.31
2023-05-21T16:40:11.208Z,25.99
2023-05-21T16:42:41.370Z,25.92
2023-05-21T16:45:10.973Z,25.94
2023-05-21T16:47:39.163Z,26.05
2023-05-21T16:50:08.816Z,25.77
2023-05-21T16:52:36.771Z,25.53
2023-05-21T16:55:05.292Z,25.15
2023-05-21T16:57:33.257Z,24.79
2023-05-21T17:00:04.179Z,24.63
2023-05-21T17:02:32.536Z,24.46
2023-05-21T17:05:00.743Z,24.31
2023-05-21T17:07:28.855Z,24.20
2023-05-21T17:09:56.589Z,24.18
2023-05-21T17:12:24.667Z,24.01
2023-05-21T17:14:53.756Z,23.89
2023-05-21T17:17:25.153Z,23.83
2023-05-21T17:19:53.284Z,23.72
2023-05-21T17:22:21.371Z,23.60
2023-05-21T17:24:49.567Z,23.49
2023-05-21T17:27:17.581Z,23.42
2023-05-21T17:29:45.572Z,23.33
2023-05-21T17:32:13.601Z,23.25
2023-05-21T17:34:43.266Z,23.17
2023-05-21T17:37:11.230Z,23.08
2023-05-21T17:39:39.375Z,23.05
2023-05-21T17:42:07.376Z,23.01
2023-05-21T17:44:35.701Z,22.96
2023-05-21T17:47:03.832Z,22.94
2023-05-21T17:49:31.704Z,22.93
2023-05-21T17:52:03.202Z,23.03
2023-05-21T17:54:31.217Z,23.43
2023-05-21T17:56:59.262Z,23.37
2023-05-21T17:59:27.230Z,23.58
2023-05-21T18:01:55.292Z,23.81
2023-05-21T18:04:23.553Z,24.04
2023-05-21T18:06:51.867Z,24.94
2023-05-21T18:09:21.291Z,25.79
2023-05-21T18:11:49.440Z,26.46
2023-05-21T18:14:17.256Z,26.90
2023-05-21T18:16:45.585Z,27.32
2023-05-21T18:19:13.724Z,27.71
2023-05-21T18:21:41.928Z,27.97
2023-05-21T18:24:10.116Z,28.27
2023-05-21T18:26:39.508Z,28.12
2023-05-21T18:29:07.542Z,27.47
2023-05-21T18:31:35.981Z,27.01
2023-05-21T18:34:04.055Z,26.67
2023-05-21T18:36:38.603Z,25.95
2023-05-21T18:39:07.633Z,25.31
2023-05-21T18:41:35.817Z,24.97
2023-05-21T18:44:06.184Z,24.92
2023-05-21T18:46:34.900Z,24.86
2023-05-21T18:49:04.173Z,24.50
2023-05-21T18:51:33.587Z,24.21
2023-05-21T18:54:02.007Z,23.77
2023-05-21T18:56:31.986Z,23.37
2023-05-21T18:59:00.074Z,22.97
2023-05-21T19:01:29.471Z,22.71
2023-05-21T19:03:57.742Z,22.42
2023-05-21T19:06:27.835Z,22.14
2023-05-21T19:08:56.158Z,21.92
2023-05-21T19:11:27.642Z,21.67
2023-05-21T19:13:55.679Z,21.39
2023-05-21T19:16:23.693Z,20.98
2023-05-21T19:18:53.105Z,20.80
2023-05-21T19:21:21.184Z,20.55
2023-05-21T19:23:53.330Z,20.27
2023-05-21T19:26:22.788Z,20.13
2023-05-21T19:28:53.905Z,19.83
2023-05-21T19:31:23.141Z,19.63
2023-05-21T19:33:53.085Z,19.42
2023-05-21T19:36:22.299Z,19.36
2023-05-21T19:38:53.796Z,19.21
2023-05-21T19:41:22.790Z,18.95
2023-05-21T19:43:51.182Z,18.74
2023-05-21T19:46:20.696Z,18.43
2023-05-21T19:48:49.765Z,18.29
2023-05-21T19:51:19.746Z,18.11
2023-05-21T19:53:47.760Z,18.01
2023-05-21T19:56:16.270Z,17.95
2023-05-21T19:58:47.289Z,17.79
2023-05-21T20:01:17.511Z,17.71
2023-05-21T20:03:46.333Z,17.57
2023-05-21T20:06:15.571Z,17.46
2023-05-21T20:08:45.311Z,17.38
2023-05-21T20:11:13.567Z,17.26
2023-05-21T20:13:42.673Z,17.15
2023-05-21T20:16:12.935Z,17.10
2023-05-21T20:18:41.734Z,17.05
2023-05-21T20:21:09.739Z,16.91
2023-05-21T20:23:40.297Z,16.80
2023-05-21T20:26:09.764Z,16.73
2023-05-21T20:28:38.212Z,16.64
2023-05-21T20:31:06.667Z,16.59
2023-05-21T20:33:39.332Z,16.46
2023-05-21T20:36:08.798Z,16.35
2023-05-21T20:38:38.343Z,16.32
2023-05-21T20:41:06.550Z,16.15
2023-05-21T20:43:37.516Z,16.00
2023-05-21T20:46:05.887Z,15.94
2023-05-21T20:48:33.885Z,15.87
2023-05-21T20:51:03.696Z,15.73
2023-05-21T20:53:32.135Z,15.62
2023-05-21T20:56:01.722Z,15.62
2023-05-21T20:58:30.167Z,15.45
2023-05-21T21:00:59.520Z,15.33
2023-05-21T21:03:30.597Z,15.05
2023-05-21T21:06:01.141Z,15.01
2023-05-21T21:08:29.148Z,15.00
2023-05-21T21:10:57.550Z,14.94
2023-05-21T21:13:25.572Z,14.82
2023-05-21T21:15:53.774Z,14.83
2023-05-21T21:18:23.178Z,14.73
2023-05-21T21:20:51.424Z,14.59
2023-05-21T21:23:19.429Z,14.63
2023-05-21T21:25:47.583Z,14.54
2023-05-21T21:28:15.659Z,14.46
2023-05-21T21:30:44.256Z,14.40
2023-05-21T21:33:14.447Z,14.46
2023-05-21T21:35:44.035Z,14.53
2023-05-21T21:38:12.042Z,14.62
2023-05-21T21:40:40.311Z,14.54
2023-05-21T21:43:08.345Z,14.45
2023-05-21T21:45:36.563Z,14.28
2023-05-21T21:48:04.777Z,14.19
2023-05-21T21:50:32.798Z,14.06
2023-05-21T21:53:03.748Z,13.90
2023-05-21T21:55:33.042Z,13.83
2023-05-21T21:58:01.067Z,13.90
2023-05-21T22:00:29.775Z,13.93
2023-05-21T22:02:58.034Z,13.98
2023-05-21T22:05:26.054Z,13.93
2023-05-21T22:07:54.055Z,13.84
2023-05-21T22:10:23.600Z,13.75
2023-05-21T22:12:51.597Z,13.71
2023-05-21T22:15:22.999Z,13.60
2023-05-21T22:17:52.063Z,13.47
2023-05-21T22:20:22.102Z,13.52
2023-05-21T22:22:52.379Z,13.49
2023-05-21T22:25:21.679Z,13.44
2023-05-21T22:27:51.235Z,13.40
2023-05-21T22:30:19.955Z,13.38
2023-05-21T22:32:49.416Z,13.28
2023-05-21T22:35:17.552Z,13.18
2023-05-21T22:37:45.724Z,13.07
2023-05-21T22:40:13.959Z,12.93
2023-05-21T22:42:41.996Z,12.92
2023-05-21T22:45:12.497Z,12.87
2023-05-21T22:47:40.579Z,12.78
2023-05-21T22:50:10.203Z,12.71
2023-05-21T22:52:38.484Z,12.57
2023-05-21T22:55:08.028Z,12.54
2023-05-21T22:57:36.076Z,12.47
2023-05-21T23:00:04.678Z,12.41
2023-05-21T23:02:33.892Z,12.30
2023-05-21T23:05:01.939Z,12.28
2023-05-21T23:07:29.984Z,12.25
2023-05-21T23:09:58.068Z,12.20
2023-05-21T23:12:26.082Z,12.12
2023-05-21T23:14:54.038Z,12.02
2023-05-21T23:17:22.124Z,12.10
2023-05-21T23:19:52.472Z,12.05
2023-05-21T23:22:20.720Z,12.07
2023-05-21T23:24:49.269Z,12.00
2023-05-21T23:27:17.076Z,12.00
2023-05-21T23:29:45.043Z,12.02
2023-05-21T23:32:13.248Z,12.03
2023-05-21T23:34:42.060Z,12.02
2023-05-21T23:37:11.431Z,11.78
2023-05-21T23:39:39.935Z,11.70
2023-05-21T23:42:08.003Z,11.63
2023-05-21T23:44:36.002Z,11.58
2023-05-21T23:47:03.993Z,11.54
2023-05-21T23:49:31.995Z,11.50
2023-05-21T23:52:00.156Z,11.40
2023-05-21T23:54:29.580Z,11.32
2023-05-21T23:56:57.581Z,11.27
2023-05-21T23:59:25.546Z,11.17
